Time;durP1;ratioP1;P1;durP2;ratioP2;P2;SDS_P1;SDS_P2;PMS_P1;PMS_P2;Temp;Humidity;BMP_temperature;BMP_pressure;BME280_temperature;BME280_humidity;BME280_pressure;Samples;Min_cycle;Max_cycle;Signal;HPM_P1;HPM_P2
2021/12/10 00:03:04;;;;;;;24.95;12.53;;;;;;;6.32;100.00;100482.72;1680074;85;21299;-83
2021/12/10 00:06:16;;;;;;;19.75;12.40;;;;;;;6.29;100.00;100490.30;1680162;85;21298;-83
2021/12/10 00:09:41;;;;;;;26.52;13.55;;;;;;;6.27;100.00;100493.17;1680209;84;21337;-83
2021/12/10 00:12:51;;;;;;;21.20;11.75;;;;;;;6.25;100.00;100499.23;1680097;85;21353;-83
2021/12/10 00:15:57;;;;;;;17.70;11.73;;;;;;;6.25;100.00;100503.30;1680364;85;21155;-83
2021/12/10 00:19:17;;;;;;;18.02;12.25;;;;;;;6.22;100.00;100505.47;1680090;85;21851;-83
2021/12/10 00:22:19;;;;;;;19.70;12.05;;;;;;;6.21;100.00;100505.98;1679295;84;21198;-83
2021/12/10 00:25:26;;;;;;;19.13;11.33;;;;;;;6.20;100.00;100511.53;1680477;85;21285;-82
2021/12/10 00:28:40;;;;;;;20.85;12.07;;;;;;;6.19;100.00;100512.55;1680131;85;21305;-83
2021/12/10 00:31:53;;;;;;;20.50;12.13;;;;;;;6.18;100.00;100513.55;1680045;85;21765;-83
2021/12/10 00:34:59;;;;;;;26.37;14.15;;;;;;;6.16;100.00;100515.03;1680227;85;21808;-83
2021/12/10 00:38:05;;;;;;;18.95;11.10;;;;;;;6.18;100.00;100515.76;1680126;85;21163;-83
2021/12/10 00:41:11;;;;;;;17.12;11.15;;;;;;;6.26;100.00;100517.77;1680034;85;21855;-83
2021/12/10 00:44:16;;;;;;;21.00;12.20;;;;;;;6.31;100.00;100517.70;1680185;85;21286;-83
2021/12/10 00:47:21;;;;;;;18.98;11.78;;;;;;;6.34;100.00;100516.02;1657896;85;21305;-83
2021/12/10 00:50:32;;;;;;;21.68;12.23;;;;;;;6.34;100.00;100513.81;1680201;85;21895;-84
2021/12/10 00:53:36;;;;;;;24.63;13.53;;;;;;;6.29;100.00;100514.75;1680259;85;21230;-83
2021/12/10 00:56:41;;;;;;;21.55;13.65;;;;;;;6.27;100.00;100512.19;1680181;85;21321;-83
2021/12/10 00:59:47;;;;;;;23.42;13.40;;;;;;;6.27;100.00;100509.97;1661947;85;21278;-83
2021/12/10 01:02:53;;;;;;;23.87;13.35;;;;;;;6.28;100.00;100512.53;1679264;84;21847;-83
2021/12/10 01:06:03;;;;;;;23.80;13.13;;;;;;;6.26;100.00;100509.12;1680202;85;21277;-83
2021/12/10 01:09:15;;;;;;;30.92;13.62;;;;;;;6.28;100.00;100508.46;1696453;84;21303;-83
2021/12/10 01:12:25;;;;;;;24.12;13.58;;;;;;;6.29;100.00;100510.17;1698416;83;21311;-83
2021/12/10 01:16:06;;;;;;;27.98;13.38;;;;;;;6.32;100.00;100511.75;1697617;84;21952;-83
2021/12/10 01:26:09;;;;;;;18.62;11.50;;;;;;;6.26;100.00;100507.77;1679582;85;21305;-84
2021/12/10 01:29:05;;;;;;;20.68;13.30;;;;;;;6.26;100.00;100514.55;1680061;85;21317;-82
2021/12/10 01:32:13;;;;;;;27.45;14.68;;;;;;;6.25;100.00;100513.31;1680138;85;21783;-83
2021/12/10 01:35:25;;;;;;;29.25;13.62;;;;;;;6.27;100.00;100514.05;1680093;84;21863;-83
2021/12/10 01:38:31;;;;;;;27.62;13.68;;;;;;;6.29;100.00;100514.75;1679299;84;21795;-83
2021/12/10 01:41:39;;;;;;;24.98;13.50;;;;;;;6.25;100.00;100518.24;1680113;85;21246;-83
2021/12/10 01:44:45;;;;;;;19.30;12.03;;;;;;;6.22;100.00;100515.84;1680189;85;21285;-83
2021/12/10 01:47:51;;;;;;;22.95;12.18;;;;;;;6.25;100.00;100516.89;1662381;85;21234;-83
2021/12/10 01:50:56;;;;;;;19.05;12.25;;;;;;;6.26;100.00;100513.70;1679106;83;21366;-83
2021/12/10 01:54:05;;;;;;;25.50;12.78;;;;;;;6.25;100.00;100517.39;1679227;85;21242;-83
2021/12/10 01:57:10;;;;;;;21.50;12.37;;;;;;;6.24;100.00;100512.97;1680165;85;21345;-83
2021/12/10 02:00:17;;;;;;;18.57;11.57;;;;;;;6.24;100.00;100513.82;1680207;85;21171;-83
2021/12/10 02:03:22;;;;;;;21.77;11.90;;;;;;;6.25;100.00;100514.17;1680022;85;21329;-83
2021/12/10 02:06:28;;;;;;;19.57;12.20;;;;;;;6.23;100.00;100513.47;1680171;85;21198;-83
2021/12/10 02:09:34;;;;;;;19.90;12.80;;;;;;;6.21;100.00;100515.48;1679981;85;21174;-83
2021/12/10 02:12:39;;;;;;;20.88;11.65;;;;;;;6.19;100.00;100517.47;1680227;85;21312;-83
2021/12/10 02:15:44;;;;;;;18.98;12.05;;;;;;;6.19;100.00;100522.05;1680088;85;21171;-84
2021/12/10 02:18:49;;;;;;;25.08;12.33;;;;;;;6.16;100.00;100525.89;1680126;85;21201;-83
2021/12/10 02:21:55;;;;;;;21.27;12.00;;;;;;;6.13;100.00;100518.05;1680174;85;21830;-83
2021/12/10 02:25:00;;;;;;;20.52;11.18;;;;;;;6.13;100.00;100527.55;1680153;85;21314;-83
2021/12/10 02:28:05;;;;;;;25.97;12.18;;;;;;;6.13;100.00;100529.77;1680238;85;21334;-83
2021/12/10 02:31:12;;;;;;;16.62;10.68;;;;;;;6.14;100.00;100526.55;1680227;85;21202;-83
2021/12/10 02:34:18;;;;;;;23.50;12.45;;;;;;;6.13;100.00;100530.27;1680095;85;21155;-83
2021/12/10 02:37:23;;;;;;;22.27;12.10;;;;;;;6.11;100.00;100530.89;1680060;85;21225;-83
2021/12/10 02:40:29;;;;;;;19.05;11.68;;;;;;;6.12;100.00;100534.84;1679962;85;21293;-83
2021/12/10 02:43:34;;;;;;;19.02;10.65;;;;;;;6.15;100.00;100529.61;1680150;85;21301;-83
2021/12/10 02:46:40;;;;;;;18.37;10.70;;;;;;;6.13;100.00;100528.41;1680177;85;21819;-83
2021/12/10 02:49:45;;;;;;;19.55;11.55;;;;;;;6.11;100.00;100524.11;1680175;85;21673;-83
2021/12/10 02:52:51;;;;;;;15.43;10.03;;;;;;;6.09;100.00;100526.13;1679872;85;21872;-83
2021/12/10 02:55:56;;;;;;;21.02;11.80;;;;;;;6.09;100.00;100535.13;1678598;84;21353;-83
2021/12/10 02:59:03;;;;;;;21.90;11.53;;;;;;;6.07;100.00;100534.89;1678666;84;21290;-85
2021/12/10 03:02:08;;;;;;;21.50;11.40;;;;;;;6.02;100.00;100534.46;1680112;84;21308;-82
2021/12/10 03:05:14;;;;;;;26.10;12.85;;;;;;;5.96;100.00;100533.68;1680247;85;21286;-83
2021/12/10 03:08:19;;;;;;;21.95;12.07;;;;;;;5.94;100.00;100534.33;1680028;85;21744;-82
2021/12/10 03:11:27;;;;;;;26.37;11.10;;;;;;;5.96;100.00;100535.03;1662310;85;21337;-83
2021/12/10 03:14:36;;;;;;;19.12;12.13;;;;;;;5.99;100.00;100536.98;1680153;85;21820;-82
2021/12/10 03:17:42;;;;;;;22.85;13.45;;;;;;;6.02;100.00;100534.46;1680097;85;21356;-83
2021/12/10 03:20:47;;;;;;;28.67;15.30;;;;;;;6.03;100.00;100535.70;1680166;85;21804;-83
2021/12/10 03:23:54;;;;;;;26.00;15.75;;;;;;;6.04;100.00;100540.62;1680126;85;21297;-83
2021/12/10 03:27:03;;;;;;;26.37;15.20;;;;;;;6.06;100.00;100536.75;1680122;85;21306;-83
2021/12/10 03:30:13;;;;;;;29.63;16.93;;;;;;;6.06;100.00;100540.83;1680026;85;21716;-82
2021/12/10 03:33:16;;;;;;;27.60;15.72;;;;;;;6.06;100.00;100548.12;1678680;85;21728;-82
2021/12/10 03:36:20;;;;;;;27.02;16.35;;;;;;;6.03;100.00;100545.70;1662073;85;21167;-83
2021/12/10 03:39:27;;;;;;;24.45;13.62;;;;;;;5.99;100.00;100552.41;1661822;85;21329;-83
2021/12/10 03:42:33;;;;;;;22.65;13.90;;;;;;;5.95;100.00;100553.19;1662731;85;21304;-83
2021/12/10 03:45:41;;;;;;;17.65;12.33;;;;;;;5.95;100.00;100557.26;1680197;85;21227;-82
2021/12/10 03:48:47;;;;;;;19.67;12.37;;;;;;;5.95;100.00;100559.98;1661999;85;21282;-83
2021/12/10 03:51:53;;;;;;;22.05;12.80;;;;;;;5.99;100.00;100561.41;1680205;83;21316;-83
2021/12/10 03:55:00;;;;;;;17.87;13.03;;;;;;;6.03;100.00;100566.07;1661899;85;21190;-83
2021/12/10 03:58:05;;;;;;;24.30;14.58;;;;;;;6.05;100.00;100568.13;1680191;85;21337;-83
2021/12/10 04:01:11;;;;;;;22.85;13.28;;;;;;;6.05;100.00;100555.91;1686834;84;21682;-83
2021/12/10 04:04:18;;;;;;;23.85;13.03;;;;;;;6.10;100.00;100557.70;1703493;84;21813;-83
2021/12/10 04:07:30;;;;;;;25.35;14.73;;;;;;;6.13;100.00;100560.14;1702439;84;21303;-83
2021/12/10 04:10:35;;;;;;;22.25;13.25;;;;;;;6.15;100.00;100555.42;1675355;85;21319;-82
2021/12/10 04:13:42;;;;;;;23.12;12.20;;;;;;;6.13;100.00;100561.50;1661501;85;21181;-82
2021/12/10 04:16:54;;;;;;;25.00;12.47;;;;;;;6.15;100.00;100559.49;1670976;84;21221;-83
2021/12/10 04:19:55;;;;;;;23.67;12.55;;;;;;;6.12;100.00;100559.80;1672433;86;21170;-83
2021/12/10 04:23:01;;;;;;;25.50;12.80;;;;;;;6.10;100.00;100567.21;1681002;85;21307;-82
2021/12/10 04:26:06;;;;;;;18.77;12.23;;;;;;;6.08;100.00;100564.64;1684128;85;21912;-83
2021/12/10 04:29:12;;;;;;;18.95;11.90;;;;;;;6.06;100.00;100558.98;1683222;85;21267;-83
2021/12/10 04:32:19;;;;;;;21.23;12.75;;;;;;;6.07;100.00;100564.30;1684843;85;21221;-82
2021/12/10 04:35:24;;;;;;;20.92;11.57;;;;;;;6.08;100.00;100563.79;1684928;85;21882;-83
2021/12/10 04:38:30;;;;;;;22.05;12.43;;;;;;;6.10;100.00;100558.56;1677252;85;21332;-82
2021/12/10 04:41:35;;;;;;;20.23;11.95;;;;;;;6.12;100.00;100566.59;1684797;85;21848;-83
2021/12/10 04:44:41;;;;;;;19.07;11.12;;;;;;;6.14;100.00;100568.64;1686053;85;21334;-83
2021/12/10 04:47:47;;;;;;;17.35;10.70;;;;;;;6.15;100.00;100559.49;1685942;85;21208;-82
2021/12/10 04:50:53;;;;;;;18.30;10.70;;;;;;;6.14;100.00;100569.50;1640404;86;21268;-82
2021/12/10 04:53:58;;;;;;;21.97;11.75;;;;;;;6.18;100.00;100576.02;1673351;85;21212;-81
2021/12/10 04:57:05;;;;;;;18.80;10.23;;;;;;;6.17;100.00;100575.16;1681131;84;21280;-83
2021/12/10 05:00:16;;;;;;;18.60;11.43;;;;;;;6.17;100.00;100581.10;1699008;84;21897;-82
2021/12/10 05:03:22;;;;;;;17.80;12.70;;;;;;;6.19;100.00;100581.30;1698811;83;21802;-84
2021/12/10 05:06:27;;;;;;;39.13;18.90;;;;;;;6.20;100.00;100588.95;1670465;84;21973;-83
2021/12/10 05:09:32;;;;;;;25.32;15.05;;;;;;;6.15;100.00;100589.37;1652101;86;21830;-83
2021/12/10 05:12:38;;;;;;;28.07;14.87;;;;;;;6.10;100.00;100590.30;1671111;84;21372;-83
2021/12/10 05:15:47;;;;;;;24.43;15.65;;;;;;;6.05;100.00;100586.64;1670960;86;21847;-82
2021/12/10 05:18:57;;;;;;;25.48;15.25;;;;;;;6.02;100.00;100587.41;1671954;86;21226;-83
2021/12/10 05:22:02;;;;;;;25.40;15.00;;;;;;;6.00;100.00;100586.71;1673083;84;21863;-83
2021/12/10 05:25:08;;;;;;;23.12;14.43;;;;;;;6.01;100.00;100596.56;1673900;85;21212;-83
2021/12/10 05:28:14;;;;;;;25.50;17.50;;;;;;;6.01;100.00;100598.78;1673963;84;21264;-83
2021/12/10 05:31:19;;;;;;;18.92;13.28;;;;;;;6.05;100.00;100598.01;1674256;84;21279;-83
2021/12/10 05:34:24;;;;;;;24.35;13.58;;;;;;;6.12;100.00;100604.61;1674170;85;21323;-83
2021/12/10 05:37:30;;;;;;;17.67;12.73;;;;;;;6.22;100.00;100608.70;1675737;83;21287;-83
2021/12/10 05:40:34;;;;;;;20.43;12.95;;;;;;;6.27;100.00;100607.27;1695672;83;21266;-83
2021/12/10 05:43:41;;;;;;;25.60;13.65;;;;;;;6.29;100.00;100609.83;1699247;83;21835;-83
2021/12/10 05:46:47;;;;;;;20.43;12.90;;;;;;;6.28;100.00;100606.26;1697096;83;21630;-83
2021/12/10 05:49:53;;;;;;;19.02;13.78;;;;;;;6.30;100.00;100611.03;1685969;84;21324;-83
2021/12/10 05:53:00;;;;;;;18.60;13.35;;;;;;;6.31;100.00;100617.36;1682393;84;21167;-83
2021/12/10 05:56:06;;;;;;;22.17;14.68;;;;;;;6.33;100.00;100620.27;1680957;84;21512;-82
2021/12/10 05:59:13;;;;;;;21.87;13.75;;;;;;;6.35;100.00;100616.94;1682035;84;21207;-84
2021/12/10 06:02:17;;;;;;;22.32;14.43;;;;;;;6.34;100.00;100619.27;1662061;83;21298;-83
2021/12/10 06:05:23;;;;;;;26.52;15.40;;;;;;;6.34;100.00;100629.28;1685102;83;21310;-83
2021/12/10 06:08:29;;;;;;;25.68;15.53;;;;;;;6.33;100.00;100628.42;1692400;84;21708;-84
2021/12/10 06:11:35;;;;;;;26.40;13.43;;;;;;;6.34;100.00;100632.85;1687117;83;21865;-83
2021/12/10 06:14:40;;;;;;;22.37;13.50;;;;;;;6.35;100.00;100635.95;1689845;83;21364;-83
2021/12/10 06:17:47;;;;;;;21.80;14.23;;;;;;;6.38;100.00;100641.59;1669778;84;21608;-83
2021/12/10 06:20:56;;;;;;;22.75;12.90;;;;;;;6.37;100.00;100643.95;1690343;83;21189;-83
2021/12/10 06:24:02;;;;;;;22.30;13.55;;;;;;;6.41;100.00;100646.75;1688675;83;21241;-83
2021/12/10 06:27:08;;;;;;;22.85;14.05;;;;;;;6.44;100.00;100645.09;1679276;83;21187;-84
2021/12/10 06:30:15;;;;;;;21.02;13.85;;;;;;;6.46;100.00;100640.89;1680647;83;21715;-86
2021/12/10 06:33:25;;;;;;;21.20;13.32;;;;;;;6.47;100.00;100634.45;1692532;83;21894;-86
2021/12/10 06:36:30;;;;;;;23.35;14.35;;;;;;;6.50;100.00;100630.10;1691539;83;21882;-85
2021/12/10 06:39:40;;;;;;;27.87;14.65;;;;;;;6.53;100.00;100633.87;1668183;83;21210;-85
2021/12/10 06:42:47;;;;;;;23.00;15.80;;;;;;;6.56;100.00;100633.59;1681508;83;21897;-84
2021/12/10 06:45:52;;;;;;;23.55;15.50;;;;;;;6.60;100.00;100637.25;1680740;83;21265;-83
2021/12/10 06:49:00;;;;;;;27.32;14.98;;;;;;;6.62;100.00;100637.09;1662384;83;21152;-86
2021/12/10 06:52:07;;;;;;;23.55;15.30;;;;;;;6.65;100.00;100639.54;1682142;83;21420;-84
2021/12/10 06:55:13;;;;;;;20.85;13.05;;;;;;;6.71;100.00;100643.03;1692803;82;21871;-83
2021/12/10 06:58:23;;;;;;;24.13;16.57;;;;;;;6.75;100.00;100649.91;1687452;83;22356;-84
2021/12/10 07:01:35;;;;;;;28.07;17.32;;;;;;;6.75;100.00;100649.05;1685177;83;21597;-84
2021/12/10 07:04:42;;;;;;;26.02;18.27;;;;;;;6.75;100.00;100649.91;1685398;83;21675;-84
2021/12/10 07:07:59;;;;;;;32.75;19.02;;;;;;;6.77;100.00;100651.11;1686283;83;21850;-82
2021/12/10 07:11:06;;;;;;;33.10;22.87;;;;;;;6.79;100.00;100640.97;1690691;83;22184;-83
2021/12/10 07:14:11;;;;;;;38.23;23.00;;;;;;;6.78;100.00;100642.83;1686516;83;21239;-83
2021/12/10 07:17:17;;;;;;;45.60;29.32;;;;;;;6.79;100.00;100651.34;1686384;83;21535;-82
2021/12/10 07:20:22;;;;;;;40.30;24.15;;;;;;;6.81;100.00;100649.32;1670391;83;21266;-82
2021/12/10 07:23:28;;;;;;;33.50;22.80;;;;;;;6.85;100.00;100645.82;1687133;83;21217;-83
2021/12/10 07:26:33;;;;;;;40.40;22.02;;;;;;;6.87;100.00;100658.79;1687281;83;21320;-85
2021/12/10 07:29:38;;;;;;;41.05;22.25;;;;;;;6.91;100.00;100661.55;1688894;83;21899;-83
2021/12/10 07:32:44;;;;;;;35.50;22.82;;;;;;;6.95;100.00;100666.20;1688820;83;21717;-84
2021/12/10 07:35:50;;;;;;;47.67;27.60;;;;;;;6.97;100.00;100662.35;1691093;83;22199;-84
2021/12/10 07:38:56;;;;;;;46.00;26.37;;;;;;;6.99;100.00;100659.48;1688232;83;22029;-84
2021/12/10 07:42:02;;;;;;;47.17;26.30;;;;;;;7.00;100.00;100660.69;1695444;82;21563;-84
2021/12/10 07:45:09;;;;;;;47.53;28.35;;;;;;;7.05;100.00;100665.69;1666092;83;21229;-85
2021/12/10 07:48:18;;;;;;;40.35;23.38;;;;;;;7.08;100.00;100665.41;1690037;83;21186;-86
2021/12/10 07:51:28;;;;;;;41.05;24.70;;;;;;;7.11;100.00;100667.85;1664445;84;21481;-84
2021/12/10 07:54:34;;;;;;;38.92;24.72;;;;;;;7.14;100.00;100667.55;1664184;83;21448;-84
2021/12/10 07:57:40;;;;;;;32.00;19.65;;;;;;;7.18;100.00;100668.97;1655207;83;21285;-83
2021/12/10 08:00:47;;;;;;;33.45;21.25;;;;;;;7.26;100.00;100665.03;1672549;83;21725;-83
2021/12/10 08:03:56;;;;;;;30.92;19.32;;;;;;;7.33;100.00;100661.20;1671591;83;21211;-84
2021/12/10 08:07:06;;;;;;;34.03;22.10;;;;;;;7.37;100.00;100663.48;1644993;84;21284;-86
2021/12/10 08:10:14;;;;;;;31.68;19.62;;;;;;;7.45;100.00;100670.07;1686817;83;21558;-85
2021/12/10 08:13:22;;;;;;;38.05;18.82;;;;;;;7.47;100.00;100668.05;1688612;83;21641;-84
2021/12/10 08:16:27;;;;;;;34.15;20.52;;;;;;;7.52;100.00;100668.45;1686074;83;21330;-82
2021/12/10 08:19:34;;;;;;;31.35;19.15;;;;;;;7.56;100.00;100670.73;1665767;84;21741;-83
2021/12/10 08:22:41;;;;;;;26.20;16.95;;;;;;;7.60;100.00;100660.42;1690513;83;21305;-85
2021/12/10 08:25:48;;;;;;;27.67;17.87;;;;;;;7.69;100.00;100671.78;1690582;83;21318;-85
2021/12/10 08:28:54;;;;;;;27.95;16.62;;;;;;;7.75;100.00;100665.72;1691039;83;21202;-86
2021/12/10 08:32:03;;;;;;;30.15;17.87;;;;;;;7.78;100.00;100656.41;1687849;83;21209;-84
2021/12/10 08:35:15;;;;;;;35.33;20.50;;;;;;;7.81;100.00;100656.09;1688614;83;21321;-83
2021/12/10 08:38:24;;;;;;;48.30;26.30;;;;;;;7.86;100.00;100647.85;1687357;83;21818;-82
2021/12/10 08:41:37;;;;;;;71.07;41.37;;;;;;;7.94;100.00;100638.40;1689099;81;21324;-82
2021/12/10 08:44:42;;;;;;;86.35;43.73;;;;;;;8.05;100.00;100635.14;1694870;83;21372;-84
2021/12/10 08:47:48;;;;;;;119.55;71.45;;;;;;;8.19;100.00;100626.45;1691216;83;21510;-80
2021/12/10 08:50:55;;;;;;;127.02;70.17;;;;;;;8.32;100.00;100630.14;1691153;83;21337;-81
2021/12/10 08:54:01;;;;;;;113.83;60.40;;;;;;;8.39;100.00;100628.06;1691031;83;22051;-83
2021/12/10 08:57:09;;;;;;;136.40;80.77;;;;;;;8.47;100.00;100629.13;1688467;83;21298;-83
2021/12/10 09:00:19;;;;;;;110.88;51.98;;;;;;;8.53;100.00;100617.63;1686348;83;21348;-83
2021/12/10 09:03:24;;;;;;;97.85;47.38;;;;;;;8.58;100.00;100616.14;1684073;83;21190;-83
2021/12/10 09:06:33;;;;;;;87.45;43.05;;;;;;;8.60;100.00;100621.44;1685436;83;21349;-83
2021/12/10 09:09:41;;;;;;;90.95;45.67;;;;;;;8.56;100.00;100621.39;1677056;83;21615;-85
2021/12/10 09:12:45;;;;;;;91.40;44.35;;;;;;;8.54;100.00;100619.34;1686161;83;21855;-85
2021/12/10 09:15:57;;;;;;;87.65;44.18;;;;;;;8.51;100.00;100616.41;1690715;83;21838;-83
2021/12/10 09:19:11;;;;;;;107.70;49.77;;;;;;;8.50;100.00;100611.97;1642806;84;21340;-81
2021/12/10 09:22:18;;;;;;;96.02;43.63;;;;;;;8.50;100.00;100611.97;1677461;83;21297;-85
2021/12/10 09:25:24;;;;;;;110.42;48.92;;;;;;;8.51;100.00;100610.09;1682664;83;21619;-85
2021/12/10 09:28:32;;;;;;;102.85;47.48;;;;;;;8.57;100.00;100612.22;1665271;84;21936;-86
2021/12/10 09:31:42;;;;;;;104.50;46.00;;;;;;;8.63;100.00;100617.89;1665463;83;21206;-83
2021/12/10 09:34:48;;;;;;;127.27;63.42;;;;;;;8.65;100.00;100607.67;1661895;84;21217;-82
2021/12/10 09:37:54;;;;;;;101.18;48.20;;;;;;;8.69;100.00;100610.44;1661012;84;21207;-83
2021/12/10 09:41:04;;;;;;;87.72;39.13;;;;;;;8.71;100.00;100603.48;1689521;83;21306;-83
2021/12/10 09:44:11;;;;;;;102.32;42.62;;;;;;;8.74;100.00;100595.48;1683622;83;21198;-86
2021/12/10 09:47:16;;;;;;;101.40;48.70;;;;;;;8.76;100.00;100595.69;1679944;84;21601;-87
2021/12/10 09:50:21;;;;;;;98.92;46.77;;;;;;;8.74;100.00;100592.75;1682272;83;21206;-83
2021/12/10 09:53:34;;;;;;;104.47;48.25;;;;;;;8.76;100.00;100598.41;1680055;83;22287;-83
2021/12/10 09:56:40;;;;;;;133.75;60.10;;;;;;;8.83;100.00;100598.11;1664614;84;21232;-83
2021/12/10 09:59:50;;;;;;;126.38;58.65;;;;;;;8.94;100.00;100596.52;1662068;83;21175;-85
2021/12/10 10:02:59;;;;;;;117.93;54.55;;;;;;;9.02;100.00;100589.39;1681852;83;21843;-84
2021/12/10 10:06:07;;;;;;;127.32;56.77;;;;;;;9.05;100.00;100584.48;1682865;83;21851;-85
2021/12/10 10:09:14;;;;;;;113.80;49.60;;;;;;;9.06;100.00;100592.16;1691129;83;21844;-85
2021/12/10 10:12:29;;;;;;;106.03;46.42;;;;;;;9.07;100.00;100585.16;1687152;83;21222;-85
2021/12/10 10:15:38;;;;;;;97.30;49.67;;;;;;;9.10;100.00;100578.55;1647045;84;21218;-87
2021/12/10 10:18:46;;;;;;;100.30;48.95;;;;;;;9.09;100.00;100572.23;1665935;84;21160;-86
2021/12/10 10:22:00;;;;;;;56.05;32.65;;;;;;;9.06;100.00;100566.23;1668638;84;21904;-86
2021/12/10 10:25:08;;;;;;;40.60;25.30;;;;;;;9.02;100.00;100558.02;1689490;83;21746;-85
2021/12/10 10:28:14;;;;;;;42.17;23.83;;;;;;;9.03;100.00;100551.02;1661581;84;21217;-82
2021/12/10 10:31:41;;;;;;;63.33;44.38;;;;;;;9.07;100.00;100557.03;1690456;83;21287;-83
2021/12/10 10:34:50;;;;;;;67.10;36.45;;;;;;;9.11;100.00;100558.42;1688719;82;21739;-81
2021/12/10 10:37:56;;;;;;;132.65;78.37;;;;;;;9.13;100.00;100564.59;1655955;84;21584;-83
2021/12/10 10:41:13;;;;;;;132.55;52.88;;;;;;;9.17;100.00;100557.77;1667155;84;21891;-84
2021/12/10 10:44:30;;;;;;;115.65;49.00;;;;;;;9.20;100.00;100557.45;1666950;84;22362;-81
2021/12/10 10:47:39;;;;;;;94.28;40.83;;;;;;;9.20;100.00;100552.00;1669698;84;21298;-82
2021/12/10 10:54:43;;;;;;;74.40;32.25;;;;;;;9.18;100.00;100547.22;1754484;78;21206;-84
2021/12/10 10:58:06;;;;;;;52.75;26.55;;;;;;;9.18;100.00;100540.40;1726872;79;21759;-83
2021/12/10 11:01:27;;;;;;;53.45;26.27;;;;;;;9.20;100.00;100535.63;1736732;79;21163;-83
2021/12/10 11:04:55;;;;;;;45.60;24.45;;;;;;;9.19;100.00;100536.13;1756557;79;21241;-82
2021/12/10 11:08:12;;;;;;;51.20;26.02;;;;;;;9.20;100.00;100541.93;1759650;79;21285;-82
2021/12/10 11:11:35;;;;;;;47.88;24.20;;;;;;;9.17;100.00;100546.38;1697072;83;21196;-84
2021/12/10 11:14:53;;;;;;;44.40;20.80;;;;;;;9.17;100.00;100546.38;1691121;83;21289;-82
2021/12/10 11:18:00;;;;;;;34.78;18.17;;;;;;;9.17;100.00;100537.30;1702163;81;21189;-82
2021/12/10 11:21:10;;;;;;;36.15;17.20;;;;;;;9.19;100.00;100529.31;1676148;83;21180;-83
2021/12/10 11:24:26;;;;;;;37.75;19.48;;;;;;;9.19;100.00;100535.28;1697328;83;21178;-83
2021/12/10 11:27:45;;;;;;;33.35;18.60;;;;;;;9.18;100.00;100537.67;1671419;84;21282;-82
2021/12/10 11:31:06;;;;;;;42.38;19.32;;;;;;;9.17;100.00;100542.27;1699039;83;21275;-82
2021/12/10 11:34:14;;;;;;;34.58;18.60;;;;;;;9.15;100.00;100540.71;1662118;83;21224;-83
2021/12/10 11:37:23;;;;;;;33.50;17.57;;;;;;;9.14;100.00;100553.50;1640409;83;21200;-84
2021/12/10 11:41:01;;;;;;;29.82;14.75;;;;;;;9.15;100.00;100562.55;1677941;83;21291;-82
2021/12/10 11:47:38;;;;;;;23.80;15.83;;;;;;;9.06;100.00;100560.77;1685446;83;21295;-82
2021/12/10 11:50:34;;;;;;;33.00;17.65;;;;;;;9.04;100.00;100561.46;1682872;83;22113;-84
2021/12/10 11:54:00;;;;;;;36.70;19.65;;;;;;;9.05;100.00;100568.11;1681699;83;21185;-81
2021/12/10 11:57:26;;;;;;;32.30;19.52;;;;;;;9.07;100.00;100559.75;1679561;84;21188;-84
2021/12/10 12:00:37;;;;;;;20.40;13.70;;;;;;;9.14;100.00;100559.47;1676987;84;21327;-81
2021/12/10 12:03:42;;;;;;;;;;;;;;;9.25;100.00;100556.97;1681117;84;21203;-83
2021/12/10 12:06:51;;;;;;;20.15;13.45;;;;;;;9.34;100.00;100550.54;1677446;84;20249;-82
2021/12/10 12:10:20;;;;;;;18.85;11.15;;;;;;;9.35;100.00;100551.73;1677844;84;21347;-83
2021/12/10 12:13:56;;;;;;;17.90;10.08;;;;;;;9.40;100.00;100556.70;1694593;83;21683;-83
2021/12/10 12:17:02;;;;;;;16.70;9.58;;;;;;;9.45;100.00;100555.19;1693537;83;21212;-81
2021/12/10 12:20:10;;;;;;;15.55;9.30;;;;;;;9.48;100.00;100552.15;1670555;84;21201;-81
2021/12/10 12:26:43;;;;;;;17.32;8.73;;;;;;;9.49;100.00;100546.17;1608903;84;21307;-82
2021/12/10 12:30:01;;;;;;;17.00;8.40;;;;;;;9.48;100.00;100554.02;1673937;84;21209;-83
2021/12/10 12:33:11;;;;;;;14.13;8.63;;;;;;;9.50;100.00;100554.70;1693728;83;22860;-82
2021/12/10 12:36:22;;;;;;;14.75;8.33;;;;;;;9.53;100.00;100554.39;1693965;83;21997;-83
2021/12/10 12:39:44;;;;;;;11.00;7.83;;;;;;;9.54;100.00;100553.36;1677227;84;21835;-82
2021/12/10 12:42:55;;;;;;;12.78;7.90;;;;;;;9.59;100.00;100561.91;1691447;83;21342;-81
2021/12/10 12:46:03;;;;;;;13.85;8.70;;;;;;;9.61;100.00;100557.16;1697326;83;21878;-80
2021/12/10 12:49:09;;;;;;;15.35;8.85;;;;;;;9.63;100.00;100548.80;1654358;84;21228;-80
2021/12/10 12:52:21;;;;;;;15.65;8.48;;;;;;;9.63;100.00;100548.80;1688902;83;21204;-80
2021/12/10 12:55:45;;;;;;;14.23;8.00;;;;;;;9.62;100.00;100554.77;1670601;83;21364;-80
2021/12/10 12:59:00;;;;;;;15.18;7.70;;;;;;;9.60;100.00;100555.45;1671854;84;21365;-81
2021/12/10 13:02:07;;;;;;;11.60;7.33;;;;;;;9.60;100.00;100563.66;1670100;83;21220;-81
2021/12/10 13:05:17;;;;;;;13.13;6.90;;;;;;;9.58;100.00;100567.03;1657166;84;21212;-78
2021/12/10 13:08:35;;;;;;;9.65;6.25;;;;;;;9.58;100.00;100553.90;1670964;84;21211;-82
2021/12/10 13:11:51;;;;;;;10.25;6.15;;;;;;;9.57;100.00;100557.66;1655627;84;21583;-81
2021/12/10 13:15:01;;;;;;;10.05;6.00;;;;;;;9.58;100.00;100566.19;1673038;84;21992;-82
2021/12/10 13:18:12;;;;;;;14.85;7.17;;;;;;;9.57;100.00;100563.12;1672007;84;21246;-82
2021/12/10 13:21:18;;;;;;;10.50;6.78;;;;;;;9.58;100.00;100562.94;1694210;83;22285;-82
2021/12/10 13:24:24;;;;;;;10.93;6.22;;;;;;;9.57;100.00;100560.38;1699220;83;21252;-82
2021/12/10 13:27:34;;;;;;;16.27;7.53;;;;;;;9.57;100.00;100559.02;1695791;83;21831;-82
2021/12/10 13:30:47;;;;;;;14.30;7.15;;;;;;;9.56;100.00;100564.14;1701310;83;21315;-81
2021/12/10 13:33:53;;;;;;;15.55;8.20;;;;;;;9.55;100.00;100566.50;1694791;83;21303;-82
2021/12/10 13:36:59;;;;;;;11.12;6.92;;;;;;;9.53;100.00;100553.53;1695490;83;21813;-83
2021/12/10 13:40:04;;;;;;;9.55;5.97;;;;;;;9.54;100.00;100562.06;1675366;84;21362;-82
2021/12/10 13:43:12;;;;;;;11.30;6.78;;;;;;;9.54;100.00;100554.73;1674487;84;21354;-85
2021/12/10 13:46:20;;;;;;;10.72;6.08;;;;;;;9.56;100.00;100558.68;1696323;83;21701;-83
2021/12/10 13:49:26;;;;;;;13.13;6.92;;;;;;;9.55;100.00;100555.58;1693827;83;21236;-81
2021/12/10 13:53:04;;;;;;;9.80;6.83;;;;;;;9.54;100.00;100552.51;1694482;83;21394;-82
2021/12/10 13:56:15;;;;;;;12.15;6.97;;;;;;;9.54;100.00;100543.80;1672657;84;21382;-81
2021/12/10 13:59:22;;;;;;;12.93;6.70;;;;;;;9.50;100.00;100547.88;1676772;84;21213;-82
2021/12/10 14:02:27;;;;;;;12.63;7.15;;;;;;;9.45;100.00;100541.54;1661874;84;21966;-81
2021/12/10 14:05:36;;;;;;;14.18;7.15;;;;;;;9.43;100.00;100541.38;1666672;84;21422;-81
2021/12/10 14:08:41;;;;;;;15.10;6.62;;;;;;;9.39;100.00;100537.25;1688353;84;21946;-82
2021/12/10 14:11:55;;;;;;;8.78;5.15;;;;;;;9.34;100.00;100532.28;1683847;84;21331;-81
2021/12/10 14:15:22;;;;;;;9.43;5.55;;;;;;;9.33;100.00;100538.77;1691862;83;22727;-81
2021/12/10 14:18:34;;;;;;;9.18;5.95;;;;;;;9.35;100.00;100536.72;1686450;83;21242;-82
2021/12/10 14:21:43;;;;;;;9.48;5.40;;;;;;;9.33;100.00;100528.36;1666873;84;21864;-81
2021/12/10 14:24:56;;;;;;;9.05;5.62;;;;;;;9.33;100.00;100533.82;1645966;84;21898;-82
2021/12/10 14:28:22;;;;;;;12.65;6.15;;;;;;;9.33;100.00;100542.86;1693211;84;21169;-82
2021/12/10 14:31:35;;;;;;;9.95;6.03;;;;;;;9.32;100.00;100553.95;1684411;83;22630;-81
2021/12/10 14:34:40;;;;;;;9.13;5.60;;;;;;;9.32;100.00;100558.05;1697161;83;21826;-81
2021/12/10 14:38:09;;;;;;;10.08;5.55;;;;;;;9.30;100.00;100558.19;1701605;83;21815;-82